sensor_id;sensor_type;location;lat;lon;timestamp;P1;durP1;ratioP1;P2;durP2;ratioP2
75139;SDS011;63714;55.812;37.658;2023-03-14T00:01:07;7.32;;;2.22;;
75139;SDS011;63714;55.812;37.658;2023-03-14T00:03:37;6.07;;;2.42;;
75139;SDS011;63714;55.812;37.658;2023-03-14T00:06:04;5.22;;;2.13;;
75139;SDS011;63714;55.812;37.658;2023-03-14T00:08:30;4.97;;;2.03;;
75139;SDS011;63714;55.812;37.658;2023-03-14T00:10:56;3.90;;;2.05;;
75139;SDS011;63714;55.812;37.658;2023-03-14T00:13:23;4.28;;;1.52;;
75139;SDS011;63714;55.812;37.658;2023-03-14T00:15:49;3.40;;;1.60;;
75139;SDS011;63714;55.812;37.658;2023-03-14T00:18:15;3.90;;;1.80;;
75139;SDS011;63714;55.812;37.658;2023-03-14T00:20:40;4.97;;;2.25;;
75139;SDS011;63714;55.812;37.658;2023-03-14T00:23:06;3.20;;;1.92;;
75139;SDS011;63714;55.812;37.658;2023-03-14T00:25:32;4.25;;;1.77;;
75139;SDS011;63714;55.812;37.658;2023-03-14T00:27:57;3.67;;;2.13;;
75139;SDS011;63714;55.812;37.658;2023-03-14T00:30:23;2.88;;;1.80;;
75139;SDS011;63714;55.812;37.658;2023-03-14T00:32:48;4.32;;;1.90;;
75139;SDS011;63714;55.812;37.658;2023-03-14T00:35:14;5.22;;;1.70;;
75139;SDS011;63714;55.812;37.658;2023-03-14T00:37:40;4.50;;;1.80;;
75139;SDS011;63714;55.812;37.658;2023-03-14T00:40:06;3.90;;;1.63;;
75139;SDS011;63714;55.812;37.658;2023-03-14T00:42:33;3.95;;;1.42;;
75139;SDS011;63714;55.812;37.658;2023-03-14T00:44:59;2.95;;;1.33;;
75139;SDS011;63714;55.812;37.658;2023-03-14T00:47:25;4.07;;;1.65;;
75139;SDS011;63714;55.812;37.658;2023-03-14T00:49:51;2.53;;;1.45;;
75139;SDS011;63714;55.812;37.658;2023-03-14T00:52:16;4.43;;;1.30;;
75139;SDS011;63714;55.812;37.658;2023-03-14T00:54:42;3.20;;;1.23;;
75139;SDS011;63714;55.812;37.658;2023-03-14T00:57:07;2.25;;;1.05;;
75139;SDS011;63714;55.812;37.658;2023-03-14T00:59:33;2.47;;;0.98;;
75139;SDS011;63714;55.812;37.658;2023-03-14T01:01:58;3.67;;;1.35;;
75139;SDS011;63714;55.812;37.658;2023-03-14T01:04:24;4.30;;;1.38;;
75139;SDS011;63714;55.812;37.658;2023-03-14T01:06:50;2.63;;;1.35;;
75139;SDS011;63714;55.812;37.658;2023-03-14T01:09:15;3.80;;;1.25;;
75139;SDS011;63714;55.812;37.658;2023-03-14T01:11:42;1.88;;;1.02;;
75139;SDS011;63714;55.812;37.658;2023-03-14T01:14:11;3.97;;;1.63;;
75139;SDS011;63714;55.812;37.658;2023-03-14T01:16:38;4.82;;;1.60;;
75139;SDS011;63714;55.812;37.658;2023-03-14T01:19:03;5.57;;;1.38;;
75139;SDS011;63714;55.812;37.658;2023-03-14T01:21:33;2.78;;;1.25;;
75139;SDS011;63714;55.812;37.658;2023-03-14T01:24:00;2.70;;;1.52;;
75139;SDS011;63714;55.812;37.658;2023-03-14T01:26:27;2.92;;;1.20;;
75139;SDS011;63714;55.812;37.658;2023-03-14T01:28:55;4.07;;;1.40;;
75139;SDS011;63714;55.812;37.658;2023-03-14T01:31:22;3.35;;;1.17;;
75139;SDS011;63714;55.812;37.658;2023-03-14T01:33:48;5.68;;;1.10;;
75139;SDS011;63714;55.812;37.658;2023-03-14T01:36:14;2.50;;;1.20;;
75139;SDS011;63714;55.812;37.658;2023-03-14T01:38:40;1.73;;;1.00;;
75139;SDS011;63714;55.812;37.658;2023-03-14T01:41:07;5.07;;;0.98;;
75139;SDS011;63714;55.812;37.658;2023-03-14T01:43:37;2.65;;;1.00;;
75139;SDS011;63714;55.812;37.658;2023-03-14T01:48:32;3.95;;;1.25;;
75139;SDS011;63714;55.812;37.658;2023-03-14T01:51:04;2.70;;;1.38;;
75139;SDS011;63714;55.812;37.658;2023-03-14T01:53:34;3.63;;;1.05;;
75139;SDS011;63714;55.812;37.658;2023-03-14T01:56:01;2.90;;;1.20;;
75139;SDS011;63714;55.812;37.658;2023-03-14T01:58:28;2.25;;;0.88;;
75139;SDS011;63714;55.812;37.658;2023-03-14T02:00:59;2.22;;;1.40;;
75139;SDS011;63714;55.812;37.658;2023-03-14T02:03:26;2.78;;;1.33;;
75139;SDS011;63714;55.812;37.658;2023-03-14T02:05:54;4.53;;;1.77;;
75139;SDS011;63714;55.812;37.658;2023-03-14T02:10:50;3.45;;;1.60;;
75139;SDS011;63714;55.812;37.658;2023-03-14T02:13:17;2.67;;;1.20;;
75139;SDS011;63714;55.812;37.658;2023-03-14T02:18:11;4.55;;;1.70;;
75139;SDS011;63714;55.812;37.658;2023-03-14T02:20:48;3.90;;;1.17;;
75139;SDS011;63714;55.812;37.658;2023-03-14T02:23:17;3.08;;;1.80;;
75139;SDS011;63714;55.812;37.658;2023-03-14T02:25:57;3.53;;;1.83;;
75139;SDS011;63714;55.812;37.658;2023-03-14T02:28:29;2.60;;;1.35;;
75139;SDS011;63714;55.812;37.658;2023-03-14T02:30:55;3.85;;;2.10;;
75139;SDS011;63714;55.812;37.658;2023-03-14T02:33:20;2.95;;;1.85;;
75139;SDS011;63714;55.812;37.658;2023-03-14T02:41:03;3.90;;;1.67;;
75139;SDS011;63714;55.812;37.658;2023-03-14T02:43:29;4.88;;;1.73;;
75139;SDS011;63714;55.812;37.658;2023-03-14T02:45:54;3.75;;;2.17;;
75139;SDS011;63714;55.812;37.658;2023-03-14T02:48:22;3.38;;;2.13;;
75139;SDS011;63714;55.812;37.658;2023-03-14T02:50:51;4.40;;;1.80;;
75139;SDS011;63714;55.812;37.658;2023-03-14T02:53:21;3.85;;;1.73;;
75139;SDS011;63714;55.812;37.658;2023-03-14T02:55:50;3.05;;;1.50;;
75139;SDS011;63714;55.812;37.658;2023-03-14T02:58:16;4.95;;;2.63;;
75139;SDS011;63714;55.812;37.658;2023-03-14T03:00:43;4.25;;;2.00;;
75139;SDS011;63714;55.812;37.658;2023-03-14T03:03:09;4.40;;;2.28;;
75139;SDS011;63714;55.812;37.658;2023-03-14T03:05:34;3.50;;;1.70;;
75139;SDS011;63714;55.812;37.658;2023-03-14T03:08:00;4.03;;;2.13;;
75139;SDS011;63714;55.812;37.658;2023-03-14T03:10:27;3.95;;;2.20;;
75139;SDS011;63714;55.812;37.658;2023-03-14T03:12:53;4.97;;;2.63;;
75139;SDS011;63714;55.812;37.658;2023-03-14T03:15:19;6.22;;;2.80;;
75139;SDS011;63714;55.812;37.658;2023-03-14T03:17:44;7.63;;;2.90;;
75139;SDS011;63714;55.812;37.658;2023-03-14T03:20:10;5.28;;;2.90;;
75139;SDS011;63714;55.812;37.658;2023-03-14T03:22:36;5.90;;;2.50;;
75139;SDS011;63714;55.812;37.658;2023-03-14T03:25:03;3.90;;;2.08;;
75139;SDS011;63714;55.812;37.658;2023-03-14T03:27:30;4.50;;;2.60;;
75139;SDS011;63714;55.812;37.658;2023-03-14T03:29:57;3.92;;;2.13;;
75139;SDS011;63714;55.812;37.658;2023-03-14T03:32:23;5.72;;;2.45;;
75139;SDS011;63714;55.812;37.658;2023-03-14T03:34:49;3.67;;;2.40;;
75139;SDS011;63714;55.812;37.658;2023-03-14T03:37:14;5.60;;;2.25;;
75139;SDS011;63714;55.812;37.658;2023-03-14T03:39:40;4.43;;;2.58;;
75139;SDS011;63714;55.812;37.658;2023-03-14T03:42:06;6.68;;;2.97;;
75139;SDS011;63714;55.812;37.658;2023-03-14T03:44:32;6.20;;;2.78;;
75139;SDS011;63714;55.812;37.658;2023-03-14T03:46:57;6.35;;;2.90;;
75139;SDS011;63714;55.812;37.658;2023-03-14T03:49:23;6.28;;;2.63;;
75139;SDS011;63714;55.812;37.658;2023-03-14T03:51:48;4.63;;;2.20;;
75139;SDS011;63714;55.812;37.658;2023-03-14T03:54:14;3.90;;;2.30;;
75139;SDS011;63714;55.812;37.658;2023-03-14T03:56:39;5.80;;;3.38;;
75139;SDS011;63714;55.812;37.658;2023-03-14T03:59:05;6.47;;;2.90;;
75139;SDS011;63714;55.812;37.658;2023-03-14T04:01:31;4.20;;;2.78;;
75139;SDS011;63714;55.812;37.658;2023-03-14T04:03:56;3.85;;;2.50;;
75139;SDS011;63714;55.812;37.658;2023-03-14T04:06:22;5.10;;;2.47;;
75139;SDS011;63714;55.812;37.658;2023-03-14T04:08:47;11.18;;;4.55;;
75139;SDS011;63714;55.812;37.658;2023-03-14T04:11:13;5.53;;;2.95;;
75139;SDS011;63714;55.812;37.658;2023-03-14T04:13:38;8.65;;;3.13;;
75139;SDS011;63714;55.812;37.658;2023-03-14T04:16:09;8.23;;;3.53;;
75139;SDS011;63714;55.812;37.658;2023-03-14T04:18:39;8.55;;;3.65;;
75139;SDS011;63714;55.812;37.658;2023-03-14T04:21:05;6.00;;;2.83;;
75139;SDS011;63714;55.812;37.658;2023-03-14T04:23:31;8.20;;;2.55;;
75139;SDS011;63714;55.812;37.658;2023-03-14T04:25:56;4.22;;;2.45;;
75139;SDS011;63714;55.812;37.658;2023-03-14T04:28:22;9.43;;;4.38;;
75139;SDS011;63714;55.812;37.658;2023-03-14T04:30:47;7.75;;;4.18;;
75139;SDS011;63714;55.812;37.658;2023-03-14T04:33:13;5.40;;;3.17;;
75139;SDS011;63714;55.812;37.658;2023-03-14T04:35:43;6.65;;;3.20;;
75139;SDS011;63714;55.812;37.658;2023-03-14T04:38:09;5.50;;;3.22;;
75139;SDS011;63714;55.812;37.658;2023-03-14T04:40:37;6.40;;;3.85;;
75139;SDS011;63714;55.812;37.658;2023-03-14T04:43:04;5.03;;;3.38;;
75139;SDS011;63714;55.812;37.658;2023-03-14T04:45:29;4.35;;;2.47;;
75139;SDS011;63714;55.812;37.658;2023-03-14T04:47:55;9.00;;;4.97;;
75139;SDS011;63714;55.812;37.658;2023-03-14T04:50:21;5.28;;;3.03;;
75139;SDS011;63714;55.812;37.658;2023-03-14T04:52:47;8.07;;;3.72;;
75139;SDS011;63714;55.812;37.658;2023-03-14T04:55:13;8.10;;;3.55;;
75139;SDS011;63714;55.812;37.658;2023-03-14T04:57:39;10.15;;;3.58;;
75139;SDS011;63714;55.812;37.658;2023-03-14T05:00:04;10.13;;;3.75;;
75139;SDS011;63714;55.812;37.658;2023-03-14T05:02:34;5.97;;;2.95;;
75139;SDS011;63714;55.812;37.658;2023-03-14T05:05:01;6.82;;;3.92;;
75139;SDS011;63714;55.812;37.658;2023-03-14T05:07:28;6.97;;;3.80;;
75139;SDS011;63714;55.812;37.658;2023-03-14T05:09:53;9.63;;;4.18;;
75139;SDS011;63714;55.812;37.658;2023-03-14T05:12:19;4.97;;;2.80;;
75139;SDS011;63714;55.812;37.658;2023-03-14T05:14:46;6.95;;;3.13;;
75139;SDS011;63714;55.812;37.658;2023-03-14T05:17:11;8.90;;;3.47;;
75139;SDS011;63714;55.812;37.658;2023-03-14T05:19:39;8.43;;;3.13;;
75139;SDS011;63714;55.812;37.658;2023-03-14T05:22:05;7.38;;;3.10;;
75139;SDS011;63714;55.812;37.658;2023-03-14T05:24:31;5.38;;;2.85;;
75139;SDS011;63714;55.812;37.658;2023-03-14T05:26:57;7.75;;;3.78;;
75139;SDS011;63714;55.812;37.658;2023-03-14T05:29:22;8.02;;;3.80;;
75139;SDS011;63714;55.812;37.658;2023-03-14T05:31:48;6.22;;;3.45;;
75139;SDS011;63714;55.812;37.658;2023-03-14T05:34:13;7.47;;;2.85;;
75139;SDS011;63714;55.812;37.658;2023-03-14T05:36:39;7.53;;;3.03;;
75139;SDS011;63714;55.812;37.658;2023-03-14T05:39:04;7.68;;;3.72;;
75139;SDS011;63714;55.812;37.658;2023-03-14T05:41:30;6.15;;;3.05;;
75139;SDS011;63714;55.812;37.658;2023-03-14T05:43:55;6.75;;;3.22;;
75139;SDS011;63714;55.812;37.658;2023-03-14T05:46:21;4.55;;;2.60;;
75139;SDS011;63714;55.812;37.658;2023-03-14T05:48:46;6.55;;;2.95;;
75139;SDS011;63714;55.812;37.658;2023-03-14T05:51:12;6.82;;;3.05;;
75139;SDS011;63714;55.812;37.658;2023-03-14T05:53:37;6.07;;;2.85;;
75139;SDS011;63714;55.812;37.658;2023-03-14T05:56:03;8.35;;;4.05;;
75139;SDS011;63714;55.812;37.658;2023-03-14T05:58:29;9.20;;;3.15;;
75139;SDS011;63714;55.812;37.658;2023-03-14T06:00:54;6.38;;;2.90;;
75139;SDS011;63714;55.812;37.658;2023-03-14T06:03:20;9.68;;;3.60;;
75139;SDS011;63714;55.812;37.658;2023-03-14T06:05:45;8.15;;;3.38;;
75139;SDS011;63714;55.812;37.658;2023-03-14T06:08:11;7.72;;;3.78;;
75139;SDS011;63714;55.812;37.658;2023-03-14T06:10:37;7.93;;;3.30;;
75139;SDS011;63714;55.812;37.658;2023-03-14T06:13:02;6.65;;;2.65;;
75139;SDS011;63714;55.812;37.658;2023-03-14T06:15:28;4.75;;;2.40;;
75139;SDS011;63714;55.812;37.658;2023-03-14T06:17:54;6.53;;;2.75;;
75139;SDS011;63714;55.812;37.658;2023-03-14T06:20:21;7.50;;;2.67;;
75139;SDS011;63714;55.812;37.658;2023-03-14T06:22:46;6.68;;;2.78;;
75139;SDS011;63714;55.812;37.658;2023-03-14T06:25:12;10.18;;;3.47;;
75139;SDS011;63714;55.812;37.658;2023-03-14T06:27:38;5.78;;;2.42;;
75139;SDS011;63714;55.812;37.658;2023-03-14T06:30:04;7.55;;;2.92;;
75139;SDS011;63714;55.812;37.658;2023-03-14T06:32:30;13.57;;;4.05;;
75139;SDS011;63714;55.812;37.658;2023-03-14T06:34:56;7.43;;;3.20;;
75139;SDS011;63714;55.812;37.658;2023-03-14T06:37:22;7.13;;;3.90;;
75139;SDS011;63714;55.812;37.658;2023-03-14T06:39:48;10.15;;;4.72;;
75139;SDS011;63714;55.812;37.658;2023-03-14T06:42:13;17.92;;;5.93;;
75139;SDS011;63714;55.812;37.658;2023-03-14T06:44:40;7.95;;;3.70;;
75139;SDS011;63714;55.812;37.658;2023-03-14T06:47:05;9.93;;;4.10;;
75139;SDS011;63714;55.812;37.658;2023-03-14T06:49:31;16.15;;;6.60;;
75139;SDS011;63714;55.812;37.658;2023-03-14T06:51:57;12.65;;;4.90;;
75139;SDS011;63714;55.812;37.658;2023-03-14T06:54:22;14.88;;;5.57;;
75139;SDS011;63714;55.812;37.658;2023-03-14T06:56:48;8.52;;;3.13;;
75139;SDS011;63714;55.812;37.658;2023-03-14T06:59:14;20.10;;;7.35;;
75139;SDS011;63714;55.812;37.658;2023-03-14T07:01:39;20.58;;;8.52;;
75139;SDS011;63714;55.812;37.658;2023-03-14T07:04:05;23.25;;;9.13;;
75139;SDS011;63714;55.812;37.658;2023-03-14T07:06:31;18.25;;;6.38;;
75139;SDS011;63714;55.812;37.658;2023-03-14T07:08:56;18.35;;;7.43;;
75139;SDS011;63714;55.812;37.658;2023-03-14T07:11:22;12.32;;;6.32;;
75139;SDS011;63714;55.812;37.658;2023-03-14T07:13:48;16.98;;;7.43;;
75139;SDS011;63714;55.812;37.658;2023-03-14T07:16:14;11.13;;;5.70;;
75139;SDS011;63714;55.812;37.658;2023-03-14T07:18:39;12.95;;;6.68;;
75139;SDS011;63714;55.812;37.658;2023-03-14T07:21:06;18.10;;;6.97;;
75139;SDS011;63714;55.812;37.658;2023-03-14T07:23:33;10.73;;;4.18;;
75139;SDS011;63714;55.812;37.658;2023-03-14T07:25:58;17.15;;;6.97;;
75139;SDS011;63714;55.812;37.658;2023-03-14T07:28:24;7.68;;;3.45;;
75139;SDS011;63714;55.812;37.658;2023-03-14T07:30:50;15.77;;;6.20;;
75139;SDS011;63714;55.812;37.658;2023-03-14T07:33:16;13.10;;;5.88;;
75139;SDS011;63714;55.812;37.658;2023-03-14T07:35:41;13.10;;;5.00;;
75139;SDS011;63714;55.812;37.658;2023-03-14T07:38:07;13.68;;;5.75;;
75139;SDS011;63714;55.812;37.658;2023-03-14T07:40:32;18.02;;;6.28;;
75139;SDS011;63714;55.812;37.658;2023-03-14T07:42:58;14.90;;;5.88;;
75139;SDS011;63714;55.812;37.658;2023-03-14T07:45:24;10.75;;;5.20;;
75139;SDS011;63714;55.812;37.658;2023-03-14T07:47:49;8.07;;;3.15;;
75139;SDS011;63714;55.812;37.658;2023-03-14T07:50:15;15.73;;;6.10;;
75139;SDS011;63714;55.812;37.658;2023-03-14T07:52:41;10.80;;;5.07;;
75139;SDS011;63714;55.812;37.658;2023-03-14T07:55:07;13.85;;;5.55;;
75139;SDS011;63714;55.812;37.658;2023-03-14T07:57:33;6.40;;;3.63;;
75139;SDS011;63714;55.812;37.658;2023-03-14T07:59:58;7.95;;;4.07;;
75139;SDS011;63714;55.812;37.658;2023-03-14T08:02:24;11.25;;;5.28;;
75139;SDS011;63714;55.812;37.658;2023-03-14T08:04:49;8.75;;;4.40;;
75139;SDS011;63714;55.812;37.658;2023-03-14T08:07:15;9.02;;;4.03;;
75139;SDS011;63714;55.812;37.658;2023-03-14T08:09:41;10.55;;;3.95;;
75139;SDS011;63714;55.812;37.658;2023-03-14T08:12:07;8.48;;;4.13;;
75139;SDS011;63714;55.812;37.658;2023-03-14T08:14:33;11.73;;;4.82;;
75139;SDS011;63714;55.812;37.658;2023-03-14T08:16:59;9.02;;;4.28;;
75139;SDS011;63714;55.812;37.658;2023-03-14T08:19:24;8.30;;;5.20;;
75139;SDS011;63714;55.812;37.658;2023-03-14T08:21:50;13.00;;;4.35;;
75139;SDS011;63714;55.812;37.658;2023-03-14T08:24:17;9.40;;;4.20;;
75139;SDS011;63714;55.812;37.658;2023-03-14T08:26:42;7.22;;;3.40;;
75139;SDS011;63714;55.812;37.658;2023-03-14T08:29:08;7.82;;;3.63;;
75139;SDS011;63714;55.812;37.658;2023-03-14T08:31:36;11.65;;;4.53;;
75139;SDS011;63714;55.812;37.658;2023-03-14T08:34:02;8.48;;;4.70;;
75139;SDS011;63714;55.812;37.658;2023-03-14T08:36:28;5.85;;;3.55;;
75139;SDS011;63714;55.812;37.658;2023-03-14T08:38:54;11.52;;;5.15;;
75139;SDS011;63714;55.812;37.658;2023-03-14T08:41:19;8.95;;;4.57;;
75139;SDS011;63714;55.812;37.658;2023-03-14T08:43:45;9.75;;;4.88;;
75139;SDS011;63714;55.812;37.658;2023-03-14T08:46:11;8.63;;;4.03;;
75139;SDS011;63714;55.812;37.658;2023-03-14T08:48:37;8.32;;;3.83;;
75139;SDS011;63714;55.812;37.658;2023-03-14T08:51:06;9.60;;;3.65;;
75139;SDS011;63714;55.812;37.658;2023-03-14T08:53:33;12.05;;;6.18;;
75139;SDS011;63714;55.812;37.658;2023-03-14T08:55:59;10.18;;;4.43;;
75139;SDS011;63714;55.812;37.658;2023-03-14T08:58:25;6.72;;;2.83;;
75139;SDS011;63714;55.812;37.658;2023-03-14T09:00:51;9.52;;;4.22;;
75139;SDS011;63714;55.812;37.658;2023-03-14T09:03:16;7.05;;;3.60;;
75139;SDS011;63714;55.812;37.658;2023-03-14T09:05:42;9.10;;;3.30;;
75139;SDS011;63714;55.812;37.658;2023-03-14T09:08:08;6.35;;;3.40;;
75139;SDS011;63714;55.812;37.658;2023-03-14T09:10:33;6.55;;;3.22;;
75139;SDS011;63714;55.812;37.658;2023-03-14T09:12:59;6.50;;;3.70;;
75139;SDS011;63714;55.812;37.658;2023-03-14T09:15:25;7.07;;;3.80;;
75139;SDS011;63714;55.812;37.658;2023-03-14T09:17:51;8.52;;;3.58;;
75139;SDS011;63714;55.812;37.658;2023-03-14T09:20:16;10.52;;;4.78;;
75139;SDS011;63714;55.812;37.658;2023-03-14T09:22:42;9.80;;;5.05;;
75139;SDS011;63714;55.812;37.658;2023-03-14T09:25:08;6.07;;;2.60;;
75139;SDS011;63714;55.812;37.658;2023-03-14T09:27:34;8.07;;;3.85;;
75139;SDS011;63714;55.812;37.658;2023-03-14T09:30:00;7.75;;;3.70;;
75139;SDS011;63714;55.812;37.658;2023-03-14T09:32:26;10.60;;;4.18;;
75139;SDS011;63714;55.812;37.658;2023-03-14T09:34:51;11.20;;;5.10;;
75139;SDS011;63714;55.812;37.658;2023-03-14T09:37:17;8.65;;;4.05;;
75139;SDS011;63714;55.812;37.658;2023-03-14T09:39:43;15.75;;;6.25;;
75139;SDS011;63714;55.812;37.658;2023-03-14T09:42:11;15.15;;;5.40;;
75139;SDS011;63714;55.812;37.658;2023-03-14T09:44:43;13.40;;;5.65;;
75139;SDS011;63714;55.812;37.658;2023-03-14T09:47:13;13.65;;;5.38;;
75139;SDS011;63714;55.812;37.658;2023-03-14T09:49:40;17.70;;;5.88;;
75139;SDS011;63714;55.812;37.658;2023-03-14T09:52:11;14.10;;;6.65;;
75139;SDS011;63714;55.812;37.658;2023-03-14T09:57:13;11.15;;;5.10;;
75139;SDS011;63714;55.812;37.658;2023-03-14T09:59:43;14.55;;;6.35;;
75139;SDS011;63714;55.812;37.658;2023-03-14T10:02:24;17.92;;;7.68;;
75139;SDS011;63714;55.812;37.658;2023-03-14T10:04:52;21.75;;;8.88;;
75139;SDS011;63714;55.812;37.658;2023-03-14T10:07:24;14.05;;;6.03;;
75139;SDS011;63714;55.812;37.658;2023-03-14T10:09:54;12.23;;;6.70;;
75139;SDS011;63714;55.812;37.658;2023-03-14T10:12:22;13.00;;;6.97;;
75139;SDS011;63714;55.812;37.658;2023-03-14T10:15:05;12.10;;;6.63;;
75139;SDS011;63714;55.812;37.658;2023-03-14T10:17:40;13.23;;;6.10;;
75139;SDS011;63714;55.812;37.658;2023-03-14T10:20:25;11.40;;;4.82;;
75139;SDS011;63714;55.812;37.658;2023-03-14T10:22:52;7.07;;;3.33;;
75139;SDS011;63714;55.812;37.658;2023-03-14T10:25:29;7.90;;;4.35;;
75139;SDS011;63714;55.812;37.658;2023-03-14T10:27:56;8.68;;;5.20;;
75139;SDS011;63714;55.812;37.658;2023-03-14T10:33:12;11.07;;;4.97;;
75139;SDS011;63714;55.812;37.658;2023-03-14T10:35:51;15.15;;;7.80;;
75139;SDS011;63714;55.812;37.658;2023-03-14T10:38:35;16.73;;;7.05;;
75139;SDS011;63714;55.812;37.658;2023-03-14T10:41:03;10.43;;;5.60;;
75139;SDS011;63714;55.812;37.658;2023-03-14T10:43:44;12.98;;;4.47;;
75139;SDS011;63714;55.812;37.658;2023-03-14T10:46:16;12.35;;;5.22;;
75139;SDS011;63714;55.812;37.658;2023-03-14T10:48:43;16.92;;;8.30;;
75139;SDS011;63714;55.812;37.658;2023-03-14T10:51:12;13.98;;;6.43;;
75139;SDS011;63714;55.812;37.658;2023-03-14T10:53:49;9.50;;;4.90;;
75139;SDS011;63714;55.812;37.658;2023-03-14T10:56:36;9.25;;;5.75;;
75139;SDS011;63714;55.812;37.658;2023-03-14T10:59:03;9.88;;;5.25;;
75139;SDS011;63714;55.812;37.658;2023-03-14T11:01:47;9.73;;;5.00;;
75139;SDS011;63714;55.812;37.658;2023-03-14T11:04:23;12.30;;;6.28;;
75139;SDS011;63714;55.812;37.658;2023-03-14T11:07:08;11.73;;;5.35;;
75139;SDS011;63714;55.812;37.658;2023-03-14T11:09:43;13.23;;;5.22;;
75139;SDS011;63714;55.812;37.658;2023-03-14T11:23:27;9.23;;;4.60;;
75139;SDS011;63714;55.812;37.658;2023-03-14T11:28:50;7.53;;;3.78;;
75139;SDS011;63714;55.812;37.658;2023-03-14T11:31:27;11.65;;;5.28;;
75139;SDS011;63714;55.812;37.658;2023-03-14T11:33:56;8.60;;;3.90;;
75139;SDS011;63714;55.812;37.658;2023-03-14T11:39:16;11.70;;;5.63;;
75139;SDS011;63714;55.812;37.658;2023-03-14T11:41:47;15.32;;;6.30;;
75139;SDS011;63714;55.812;37.658;2023-03-14T11:46:52;15.90;;;7.43;;
75139;SDS011;63714;55.812;37.658;2023-03-14T11:49:53;10.65;;;6.18;;
75139;SDS011;63714;55.812;37.658;2023-03-14T11:52:28;9.07;;;4.72;;
75139;SDS011;63714;55.812;37.658;2023-03-14T11:55:36;7.30;;;3.92;;
75139;SDS011;63714;55.812;37.658;2023-03-14T11:58:00;8.27;;;4.53;;
75139;SDS011;63714;55.812;37.658;2023-03-14T12:00:34;9.45;;;4.55;;
75139;SDS011;63714;55.812;37.658;2023-03-14T12:03:12;12.43;;;5.80;;
75139;SDS011;63714;55.812;37.658;2023-03-14T12:13:46;10.80;;;5.32;;
75139;SDS011;63714;55.812;37.658;2023-03-14T12:18:52;12.25;;;5.43;;
75139;SDS011;63714;55.812;37.658;2023-03-14T12:21:19;9.68;;;4.78;;
75139;SDS011;63714;55.812;37.658;2023-03-14T12:23:49;8.88;;;4.82;;
75139;SDS011;63714;55.812;37.658;2023-03-14T12:26:21;8.55;;;4.85;;
75139;SDS011;63714;55.812;37.658;2023-03-14T12:36:54;9.02;;;4.40;;
75139;SDS011;63714;55.812;37.658;2023-03-14T12:39:20;13.35;;;5.60;;
75139;SDS011;63714;55.812;37.658;2023-03-14T12:45:13;11.88;;;4.93;;
75139;SDS011;63714;55.812;37.658;2023-03-14T12:51:03;8.88;;;4.68;;
75139;SDS011;63714;55.812;37.658;2023-03-14T12:56:21;9.70;;;5.38;;
75139;SDS011;63714;55.812;37.658;2023-03-14T13:01:46;12.20;;;5.57;;
75139;SDS011;63714;55.812;37.658;2023-03-14T13:04:18;5.55;;;3.30;;
75139;SDS011;63714;55.812;37.658;2023-03-14T13:06:52;6.63;;;4.18;;
75139;SDS011;63714;55.812;37.658;2023-03-14T13:11:53;7.30;;;4.30;;
75139;SDS011;63714;55.812;37.658;2023-03-14T13:14:19;11.88;;;5.22;;
75139;SDS011;63714;55.812;37.658;2023-03-14T13:16:48;7.75;;;4.60;;
75139;SDS011;63714;55.812;37.658;2023-03-14T13:19:18;8.80;;;4.88;;
75139;SDS011;63714;55.812;37.658;2023-03-14T13:21:48;13.10;;;6.65;;
75139;SDS011;63714;55.812;37.658;2023-03-14T13:24:25;8.10;;;4.72;;
75139;SDS011;63714;55.812;37.658;2023-03-14T13:26:55;10.65;;;5.85;;
75139;SDS011;63714;55.812;37.658;2023-03-14T13:31:53;7.55;;;3.78;;
75139;SDS011;63714;55.812;37.658;2023-03-14T13:34:32;11.32;;;4.82;;
75139;SDS011;63714;55.812;37.658;2023-03-14T13:36:59;7.93;;;4.40;;
75139;SDS011;63714;55.812;37.658;2023-03-14T13:39:26;11.43;;;5.43;;
75139;SDS011;63714;55.812;37.658;2023-03-14T13:42:03;8.20;;;4.25;;
75139;SDS011;63714;55.812;37.658;2023-03-14T13:44:36;10.90;;;4.22;;
75139;SDS011;63714;55.812;37.658;2023-03-14T13:47:04;8.23;;;4.68;;
75139;SDS011;63714;55.812;37.658;2023-03-14T13:49:36;7.95;;;4.32;;
75139;SDS011;63714;55.812;37.658;2023-03-14T13:52:03;7.20;;;4.10;;
75139;SDS011;63714;55.812;37.658;2023-03-14T13:54:31;8.80;;;4.80;;
75139;SDS011;63714;55.812;37.658;2023-03-14T13:57:00;9.23;;;4.22;;
75139;SDS011;63714;55.812;37.658;2023-03-14T13:59:28;10.10;;;3.65;;
75139;SDS011;63714;55.812;37.658;2023-03-14T14:01:56;13.73;;;2.83;;
75139;SDS011;63714;55.812;37.658;2023-03-14T14:04:25;7.00;;;3.47;;
75139;SDS011;63714;55.812;37.658;2023-03-14T14:07:01;6.50;;;3.35;;
75139;SDS011;63714;55.812;37.658;2023-03-14T14:09:40;8.48;;;3.30;;
75139;SDS011;63714;55.812;37.658;2023-03-14T14:12:15;5.18;;;2.90;;
75139;SDS011;63714;55.812;37.658;2023-03-14T14:17:39;7.18;;;3.75;;
75139;SDS011;63714;55.812;37.658;2023-03-14T14:20:51;5.03;;;3.03;;
75139;SDS011;63714;55.812;37.658;2023-03-14T14:23:03;7.05;;;3.45;;
75139;SDS011;63714;55.812;37.658;2023-03-14T14:25:30;5.60;;;3.15;;
75139;SDS011;63714;55.812;37.658;2023-03-14T14:27:57;5.32;;;3.05;;
75139;SDS011;63714;55.812;37.658;2023-03-14T14:30:27;5.50;;;3.08;;
75139;SDS011;63714;55.812;37.658;2023-03-14T14:33:09;7.78;;;3.85;;
75139;SDS011;63714;55.812;37.658;2023-03-14T14:35:48;7.93;;;3.90;;
75139;SDS011;63714;55.812;37.658;2023-03-14T14:38:20;5.97;;;3.17;;
75139;SDS011;63714;55.812;37.658;2023-03-14T14:40:54;6.60;;;3.47;;
75139;SDS011;63714;55.812;37.658;2023-03-14T14:43:26;8.07;;;4.15;;
75139;SDS011;63714;55.812;37.658;2023-03-14T14:45:54;10.30;;;4.50;;
75139;SDS011;63714;55.812;37.658;2023-03-14T14:48:22;6.13;;;4.13;;
75139;SDS011;63714;55.812;37.658;2023-03-14T14:50:56;7.75;;;3.42;;
75139;SDS011;63714;55.812;37.658;2023-03-14T14:53:34;8.02;;;4.00;;
75139;SDS011;63714;55.812;37.658;2023-03-14T14:56:15;7.50;;;3.58;;
75139;SDS011;63714;55.812;37.658;2023-03-14T14:58:47;6.75;;;3.15;;
75139;SDS011;63714;55.812;37.658;2023-03-14T15:01:14;6.30;;;3.75;;
75139;SDS011;63714;55.812;37.658;2023-03-14T15:03:43;4.65;;;2.60;;
75139;SDS011;63714;55.812;37.658;2023-03-14T15:06:13;6.72;;;3.20;;
75139;SDS011;63714;55.812;37.658;2023-03-14T15:08:41;7.50;;;3.30;;
75139;SDS011;63714;55.812;37.658;2023-03-14T15:11:09;6.05;;;3.35;;
75139;SDS011;63714;55.812;37.658;2023-03-14T15:16:30;10.23;;;3.60;;
75139;SDS011;63714;55.812;37.658;2023-03-14T15:18:58;4.68;;;2.60;;
75139;SDS011;63714;55.812;37.658;2023-03-14T15:21:26;5.80;;;3.00;;
75139;SDS011;63714;55.812;37.658;2023-03-14T15:23:53;5.20;;;3.40;;
75139;SDS011;63714;55.812;37.658;2023-03-14T15:26:20;4.93;;;2.63;;
75139;SDS011;63714;55.812;37.658;2023-03-14T15:28:48;4.90;;;3.08;;
75139;SDS011;63714;55.812;37.658;2023-03-14T15:31:14;7.35;;;3.80;;
75139;SDS011;63714;55.812;37.658;2023-03-14T15:33:41;5.28;;;3.33;;
75139;SDS011;63714;55.812;37.658;2023-03-14T15:36:41;8.18;;;4.32;;
75139;SDS011;63714;55.812;37.658;2023-03-14T15:39:01;8.63;;;4.00;;
75139;SDS011;63714;55.812;37.658;2023-03-14T15:41:27;4.78;;;3.10;;
75139;SDS011;63714;55.812;37.658;2023-03-14T15:43:53;7.60;;;3.80;;
75139;SDS011;63714;55.812;37.658;2023-03-14T15:46:19;6.57;;;3.42;;
75139;SDS011;63714;55.812;37.658;2023-03-14T15:48:47;8.65;;;3.60;;
75139;SDS011;63714;55.812;37.658;2023-03-14T15:51:16;5.18;;;3.17;;
75139;SDS011;63714;55.812;37.658;2023-03-14T15:53:43;8.15;;;3.55;;
75139;SDS011;63714;55.812;37.658;2023-03-14T15:56:18;7.07;;;3.17;;